sensor_id;sensor_type;location;lat;lon;timestamp;P1;durP1;ratioP1;P2;durP2;ratioP2
7571;SDS011;3827;49.928;8.548;2023-07-24T00:01:16;1.92;;;1.80;;
7571;SDS011;3827;49.928;8.548;2023-07-24T00:03:43;2.20;;;1.80;;
7571;SDS011;3827;49.928;8.548;2023-07-24T00:06:10;1.85;;;1.67;;
7571;SDS011;3827;49.928;8.548;2023-07-24T00:08:38;2.42;;;1.98;;
7571;SDS011;3827;49.928;8.548;2023-07-24T00:11:06;1.65;;;1.55;;
7571;SDS011;3827;49.928;8.548;2023-07-24T00:13:33;3.47;;;1.80;;
7571;SDS011;3827;49.928;8.548;2023-07-24T00:16:00;3.28;;;1.80;;
7571;SDS011;3827;49.928;8.548;2023-07-24T00:18:27;2.17;;;1.90;;
7571;SDS011;3827;49.928;8.548;2023-07-24T00:20:53;2.17;;;1.83;;
7571;SDS011;3827;49.928;8.548;2023-07-24T00:23:20;2.10;;;1.90;;
7571;SDS011;3827;49.928;8.548;2023-07-24T00:25:48;1.43;;;1.33;;
7571;SDS011;3827;49.928;8.548;2023-07-24T00:28:15;1.65;;;1.55;;
7571;SDS011;3827;49.928;8.548;2023-07-24T00:30:42;2.15;;;1.83;;
7571;SDS011;3827;49.928;8.548;2023-07-24T00:33:08;1.80;;;1.70;;
7571;SDS011;3827;49.928;8.548;2023-07-24T00:35:35;1.97;;;1.73;;
7571;SDS011;3827;49.928;8.548;2023-07-24T00:38:02;2.20;;;1.90;;
7571;SDS011;3827;49.928;8.548;2023-07-24T00:40:28;1.92;;;1.75;;
7571;SDS011;3827;49.928;8.548;2023-07-24T00:42:56;2.00;;;1.80;;
7571;SDS011;3827;49.928;8.548;2023-07-24T00:45:23;2.15;;;1.90;;
7571;SDS011;3827;49.928;8.548;2023-07-24T00:47:50;2.20;;;1.93;;
7571;SDS011;3827;49.928;8.548;2023-07-24T00:50:18;2.20;;;1.80;;
7571;SDS011;3827;49.928;8.548;2023-07-24T00:52:45;2.20;;;2.00;;
7571;SDS011;3827;49.928;8.548;2023-07-24T00:55:13;2.30;;;1.87;;
7571;SDS011;3827;49.928;8.548;2023-07-24T00:57:41;1.70;;;1.60;;
7571;SDS011;3827;49.928;8.548;2023-07-24T01:00:10;1.63;;;1.52;;
7571;SDS011;3827;49.928;8.548;2023-07-24T01:02:37;2.33;;;1.88;;
7571;SDS011;3827;49.928;8.548;2023-07-24T01:05:05;2.05;;;1.90;;
7571;SDS011;3827;49.928;8.548;2023-07-24T01:07:32;2.20;;;2.00;;
7571;SDS011;3827;49.928;8.548;2023-07-24T01:09:59;2.57;;;2.10;;
7571;SDS011;3827;49.928;8.548;2023-07-24T01:12:27;2.60;;;1.92;;
7571;SDS011;3827;49.928;8.548;2023-07-24T01:15:02;1.80;;;1.70;;
7571;SDS011;3827;49.928;8.548;2023-07-24T01:17:34;1.93;;;1.73;;
7571;SDS011;3827;49.928;8.548;2023-07-24T01:20:06;2.83;;;2.20;;
7571;SDS011;3827;49.928;8.548;2023-07-24T01:22:38;2.03;;;1.80;;
7571;SDS011;3827;49.928;8.548;2023-07-24T01:25:09;2.30;;;2.10;;
7571;SDS011;3827;49.928;8.548;2023-07-24T01:27:43;2.70;;;2.10;;
7571;SDS011;3827;49.928;8.548;2023-07-24T01:30:11;2.83;;;2.55;;
7571;SDS011;3827;49.928;8.548;2023-07-24T01:32:39;2.92;;;1.98;;
7571;SDS011;3827;49.928;8.548;2023-07-24T01:35:06;2.42;;;2.22;;
7571;SDS011;3827;49.928;8.548;2023-07-24T01:37:33;2.40;;;2.10;;
7571;SDS011;3827;49.928;8.548;2023-07-24T01:40:02;2.25;;;2.05;;
7571;SDS011;3827;49.928;8.548;2023-07-24T01:42:30;2.78;;;1.90;;
7571;SDS011;3827;49.928;8.548;2023-07-24T01:44:58;2.58;;;2.05;;
7571;SDS011;3827;49.928;8.548;2023-07-24T01:47:25;3.90;;;2.60;;
7571;SDS011;3827;49.928;8.548;2023-07-24T01:49:52;2.55;;;2.10;;
7571;SDS011;3827;49.928;8.548;2023-07-24T01:52:19;2.72;;;2.28;;
7571;SDS011;3827;49.928;8.548;2023-07-24T01:54:45;2.30;;;2.07;;
7571;SDS011;3827;49.928;8.548;2023-07-24T01:57:12;2.95;;;2.13;;
7571;SDS011;3827;49.928;8.548;2023-07-24T01:59:39;2.95;;;2.38;;
7571;SDS011;3827;49.928;8.548;2023-07-24T02:02:07;3.20;;;2.60;;
7571;SDS011;3827;49.928;8.548;2023-07-24T02:04:34;2.90;;;2.60;;
7571;SDS011;3827;49.928;8.548;2023-07-24T02:07:00;2.80;;;2.50;;
7571;SDS011;3827;49.928;8.548;2023-07-24T02:09:27;3.45;;;2.90;;
7571;SDS011;3827;49.928;8.548;2023-07-24T02:11:54;3.15;;;2.33;;
7571;SDS011;3827;49.928;8.548;2023-07-24T02:14:21;3.35;;;2.78;;
7571;SDS011;3827;49.928;8.548;2023-07-24T02:16:47;2.95;;;2.55;;
7571;SDS011;3827;49.928;8.548;2023-07-24T02:19:16;4.22;;;2.72;;
7571;SDS011;3827;49.928;8.548;2023-07-24T02:21:42;2.95;;;2.60;;
7571;SDS011;3827;49.928;8.548;2023-07-24T02:24:09;3.05;;;2.47;;
7571;SDS011;3827;49.928;8.548;2023-07-24T02:26:36;3.22;;;2.80;;
7571;SDS011;3827;49.928;8.548;2023-07-24T02:29:02;3.03;;;2.70;;
7571;SDS011;3827;49.928;8.548;2023-07-24T02:31:29;3.00;;;2.70;;
7571;SDS011;3827;49.928;8.548;2023-07-24T02:33:56;3.38;;;2.60;;
7571;SDS011;3827;49.928;8.548;2023-07-24T02:36:24;3.03;;;2.67;;
7571;SDS011;3827;49.928;8.548;2023-07-24T02:38:51;3.58;;;2.88;;
7571;SDS011;3827;49.928;8.548;2023-07-24T02:41:18;3.35;;;2.97;;
7571;SDS011;3827;49.928;8.548;2023-07-24T02:43:44;4.00;;;3.13;;
7571;SDS011;3827;49.928;8.548;2023-07-24T02:46:11;4.57;;;3.17;;
7571;SDS011;3827;49.928;8.548;2023-07-24T02:48:38;4.60;;;3.45;;
7571;SDS011;3827;49.928;8.548;2023-07-24T02:51:05;3.63;;;3.17;;
7571;SDS011;3827;49.928;8.548;2023-07-24T02:53:33;4.32;;;3.50;;
7571;SDS011;3827;49.928;8.548;2023-07-24T02:56:00;3.95;;;3.40;;
7571;SDS011;3827;49.928;8.548;2023-07-24T02:58:27;4.65;;;3.20;;
7571;SDS011;3827;49.928;8.548;2023-07-24T03:00:54;3.63;;;3.20;;
7571;SDS011;3827;49.928;8.548;2023-07-24T03:03:28;4.30;;;3.30;;
7571;SDS011;3827;49.928;8.548;2023-07-24T03:05:54;3.75;;;3.28;;
7571;SDS011;3827;49.928;8.548;2023-07-24T03:08:21;3.60;;;3.20;;
7571;SDS011;3827;49.928;8.548;2023-07-24T03:10:49;3.67;;;3.05;;
7571;SDS011;3827;49.928;8.548;2023-07-24T03:13:16;3.97;;;3.33;;
7571;SDS011;3827;49.928;8.548;2023-07-24T03:15:43;4.75;;;3.55;;
7571;SDS011;3827;49.928;8.548;2023-07-24T03:18:10;4.45;;;3.20;;
7571;SDS011;3827;49.928;8.548;2023-07-24T03:20:37;4.65;;;3.22;;
7571;SDS011;3827;49.928;8.548;2023-07-24T03:23:04;3.55;;;2.90;;
7571;SDS011;3827;49.928;8.548;2023-07-24T03:25:31;3.88;;;3.28;;
7571;SDS011;3827;49.928;8.548;2023-07-24T03:28:01;3.75;;;3.35;;
7571;SDS011;3827;49.928;8.548;2023-07-24T03:30:28;4.47;;;3.58;;
7571;SDS011;3827;49.928;8.548;2023-07-24T03:32:55;4.70;;;3.50;;
7571;SDS011;3827;49.928;8.548;2023-07-24T03:35:22;4.60;;;3.53;;
7571;SDS011;3827;49.928;8.548;2023-07-24T03:37:49;3.92;;;3.47;;
7571;SDS011;3827;49.928;8.548;2023-07-24T03:40:16;4.27;;;3.53;;
7571;SDS011;3827;49.928;8.548;2023-07-24T03:42:43;4.27;;;3.33;;
7571;SDS011;3827;49.928;8.548;2023-07-24T03:45:11;4.17;;;3.30;;
7571;SDS011;3827;49.928;8.548;2023-07-24T03:47:38;5.18;;;3.63;;
7571;SDS011;3827;49.928;8.548;2023-07-24T03:50:05;4.28;;;3.40;;
7571;SDS011;3827;49.928;8.548;2023-07-24T03:52:32;4.93;;;3.53;;
7571;SDS011;3827;49.928;8.548;2023-07-24T03:54:59;4.03;;;3.47;;
7571;SDS011;3827;49.928;8.548;2023-07-24T03:57:26;4.70;;;3.47;;
7571;SDS011;3827;49.928;8.548;2023-07-24T03:59:52;4.60;;;3.85;;
7571;SDS011;3827;49.928;8.548;2023-07-24T04:02:20;3.93;;;3.40;;
7571;SDS011;3827;49.928;8.548;2023-07-24T04:04:47;4.68;;;3.67;;
7571;SDS011;3827;49.928;8.548;2023-07-24T04:07:14;4.43;;;3.65;;
7571;SDS011;3827;49.928;8.548;2023-07-24T04:09:41;4.57;;;3.55;;
7571;SDS011;3827;49.928;8.548;2023-07-24T04:12:08;3.63;;;3.15;;
7571;SDS011;3827;49.928;8.548;2023-07-24T04:14:34;4.13;;;3.22;;
7571;SDS011;3827;49.928;8.548;2023-07-24T04:17:01;4.95;;;3.88;;
7571;SDS011;3827;49.928;8.548;2023-07-24T04:19:30;4.18;;;3.63;;
7571;SDS011;3827;49.928;8.548;2023-07-24T04:21:56;5.10;;;3.97;;
7571;SDS011;3827;49.928;8.548;2023-07-24T04:24:23;5.10;;;3.90;;
7571;SDS011;3827;49.928;8.548;2023-07-24T04:26:50;7.70;;;6.87;;
7571;SDS011;3827;49.928;8.548;2023-07-24T04:29:17;8.47;;;6.80;;
7571;SDS011;3827;49.928;8.548;2023-07-24T04:31:48;6.15;;;5.05;;
7571;SDS011;3827;49.928;8.548;2023-07-24T04:34:15;6.05;;;4.22;;
7571;SDS011;3827;49.928;8.548;2023-07-24T04:36:43;5.18;;;4.22;;
7571;SDS011;3827;49.928;8.548;2023-07-24T04:39:10;4.80;;;3.47;;
7571;SDS011;3827;49.928;8.548;2023-07-24T04:41:37;5.87;;;4.40;;
7571;SDS011;3827;49.928;8.548;2023-07-24T04:44:04;4.53;;;3.75;;
7571;SDS011;3827;49.928;8.548;2023-07-24T04:46:30;4.93;;;3.63;;
7571;SDS011;3827;49.928;8.548;2023-07-24T04:48:57;6.37;;;4.00;;
7571;SDS011;3827;49.928;8.548;2023-07-24T04:51:24;3.83;;;3.42;;
7571;SDS011;3827;49.928;8.548;2023-07-24T04:53:53;5.13;;;4.00;;
7571;SDS011;3827;49.928;8.548;2023-07-24T04:56:20;4.43;;;3.40;;
7571;SDS011;3827;49.928;8.548;2023-07-24T04:58:46;4.85;;;3.95;;
7571;SDS011;3827;49.928;8.548;2023-07-24T05:01:13;4.72;;;3.80;;
7571;SDS011;3827;49.928;8.548;2023-07-24T05:03:40;4.15;;;3.70;;
7571;SDS011;3827;49.928;8.548;2023-07-24T05:06:07;4.38;;;3.80;;
7571;SDS011;3827;49.928;8.548;2023-07-24T05:08:33;5.65;;;3.95;;
7571;SDS011;3827;49.928;8.548;2023-07-24T05:11:02;4.65;;;3.75;;
7571;SDS011;3827;49.928;8.548;2023-07-24T05:13:28;4.60;;;3.80;;
7571;SDS011;3827;49.928;8.548;2023-07-24T05:15:55;6.90;;;4.50;;
7571;SDS011;3827;49.928;8.548;2023-07-24T05:18:22;5.87;;;4.10;;
7571;SDS011;3827;49.928;8.548;2023-07-24T05:20:49;4.83;;;3.83;;
7571;SDS011;3827;49.928;8.548;2023-07-24T05:23:17;4.97;;;3.63;;
7571;SDS011;3827;49.928;8.548;2023-07-24T05:25:43;4.70;;;4.10;;
7571;SDS011;3827;49.928;8.548;2023-07-24T05:28:12;4.17;;;3.67;;
7571;SDS011;3827;49.928;8.548;2023-07-24T05:30:39;6.68;;;4.00;;
7571;SDS011;3827;49.928;8.548;2023-07-24T05:33:05;5.90;;;3.92;;
7571;SDS011;3827;49.928;8.548;2023-07-24T05:35:32;3.97;;;3.58;;
7571;SDS011;3827;49.928;8.548;2023-07-24T05:37:59;5.18;;;4.28;;
7571;SDS011;3827;49.928;8.548;2023-07-24T05:40:26;6.53;;;4.10;;
7571;SDS011;3827;49.928;8.548;2023-07-24T05:42:53;4.78;;;3.90;;
7571;SDS011;3827;49.928;8.548;2023-07-24T05:45:21;5.63;;;4.07;;
7571;SDS011;3827;49.928;8.548;2023-07-24T05:47:48;5.57;;;4.13;;
7571;SDS011;3827;49.928;8.548;2023-07-24T05:50:15;6.38;;;4.18;;
7571;SDS011;3827;49.928;8.548;2023-07-24T05:52:42;6.00;;;4.43;;
7571;SDS011;3827;49.928;8.548;2023-07-24T05:55:08;4.65;;;3.85;;
7571;SDS011;3827;49.928;8.548;2023-07-24T05:57:35;6.25;;;4.07;;
7571;SDS011;3827;49.928;8.548;2023-07-24T06:00:02;5.78;;;3.95;;
7571;SDS011;3827;49.928;8.548;2023-07-24T06:02:31;6.50;;;4.00;;
7571;SDS011;3827;49.928;8.548;2023-07-24T06:04:58;5.10;;;4.10;;
7571;SDS011;3827;49.928;8.548;2023-07-24T06:07:25;5.30;;;4.40;;
7571;SDS011;3827;49.928;8.548;2023-07-24T06:09:52;6.07;;;4.28;;
7571;SDS011;3827;49.928;8.548;2023-07-24T06:12:18;6.00;;;4.28;;
7571;SDS011;3827;49.928;8.548;2023-07-24T06:14:45;5.72;;;4.20;;
7571;SDS011;3827;49.928;8.548;2023-07-24T06:17:14;5.50;;;4.13;;
7571;SDS011;3827;49.928;8.548;2023-07-24T06:19:42;4.68;;;4.05;;
7571;SDS011;3827;49.928;8.548;2023-07-24T06:22:09;4.60;;;4.07;;
7571;SDS011;3827;49.928;8.548;2023-07-24T06:24:36;4.72;;;4.28;;
7571;SDS011;3827;49.928;8.548;2023-07-24T06:27:03;6.45;;;4.60;;
7571;SDS011;3827;49.928;8.548;2023-07-24T06:29:31;5.25;;;4.18;;
7571;SDS011;3827;49.928;8.548;2023-07-24T06:31:58;5.33;;;4.43;;
7571;SDS011;3827;49.928;8.548;2023-07-24T06:34:25;6.63;;;4.40;;
7571;SDS011;3827;49.928;8.548;2023-07-24T06:36:53;5.25;;;4.20;;
7571;SDS011;3827;49.928;8.548;2023-07-24T06:39:20;3.93;;;3.47;;
7571;SDS011;3827;49.928;8.548;2023-07-24T06:41:46;4.60;;;4.10;;
7571;SDS011;3827;49.928;8.548;2023-07-24T06:44:13;4.07;;;3.67;;
7571;SDS011;3827;49.928;8.548;2023-07-24T06:46:40;5.32;;;3.35;;
7571;SDS011;3827;49.928;8.548;2023-07-24T06:49:07;5.53;;;4.00;;
7571;SDS011;3827;49.928;8.548;2023-07-24T06:51:33;4.45;;;3.70;;
7571;SDS011;3827;49.928;8.548;2023-07-24T06:54:02;4.05;;;3.63;;
7571;SDS011;3827;49.928;8.548;2023-07-24T06:56:28;4.30;;;3.72;;
7571;SDS011;3827;49.928;8.548;2023-07-24T06:58:55;4.57;;;3.78;;
7571;SDS011;3827;49.928;8.548;2023-07-24T07:01:22;4.90;;;3.73;;
7571;SDS011;3827;49.928;8.548;2023-07-24T07:03:49;4.20;;;3.60;;
7571;SDS011;3827;49.928;8.548;2023-07-24T07:06:16;4.95;;;4.00;;
7571;SDS011;3827;49.928;8.548;2023-07-24T07:08:42;5.82;;;4.03;;
7571;SDS011;3827;49.928;8.548;2023-07-24T07:11:10;4.35;;;3.45;;
7571;SDS011;3827;49.928;8.548;2023-07-24T07:13:37;5.65;;;3.92;;
7571;SDS011;3827;49.928;8.548;2023-07-24T07:16:04;4.68;;;3.58;;
7571;SDS011;3827;49.928;8.548;2023-07-24T07:18:31;4.85;;;3.67;;
7571;SDS011;3827;49.928;8.548;2023-07-24T07:20:57;4.55;;;3.83;;
7571;SDS011;3827;49.928;8.548;2023-07-24T07:23:24;4.83;;;3.63;;
7571;SDS011;3827;49.928;8.548;2023-07-24T07:25:51;4.53;;;3.63;;
7571;SDS011;3827;49.928;8.548;2023-07-24T07:28:19;3.92;;;3.13;;
7571;SDS011;3827;49.928;8.548;2023-07-24T07:30:46;5.72;;;3.80;;
7571;SDS011;3827;49.928;8.548;2023-07-24T07:33:13;4.88;;;3.85;;
7571;SDS011;3827;49.928;8.548;2023-07-24T07:35:40;5.30;;;3.85;;
7571;SDS011;3827;49.928;8.548;2023-07-24T07:38:06;5.47;;;3.47;;
7571;SDS011;3827;49.928;8.548;2023-07-24T07:40:33;4.25;;;3.50;;
7571;SDS011;3827;49.928;8.548;2023-07-24T07:43:02;5.85;;;3.63;;
7571;SDS011;3827;49.928;8.548;2023-07-24T07:45:31;4.07;;;3.15;;
7571;SDS011;3827;49.928;8.548;2023-07-24T07:47:58;4.40;;;3.30;;
7571;SDS011;3827;49.928;8.548;2023-07-24T07:50:25;3.63;;;3.22;;
7571;SDS011;3827;49.928;8.548;2023-07-24T07:52:52;3.45;;;2.90;;
7571;SDS011;3827;49.928;8.548;2023-07-24T07:55:18;4.40;;;3.15;;
7571;SDS011;3827;49.928;8.548;2023-07-24T07:57:45;5.15;;;3.50;;
7571;SDS011;3827;49.928;8.548;2023-07-24T08:00:12;3.45;;;3.10;;
7571;SDS011;3827;49.928;8.548;2023-07-24T08:02:41;2.78;;;2.40;;
7571;SDS011;3827;49.928;8.548;2023-07-24T08:05:08;4.65;;;3.15;;
7571;SDS011;3827;49.928;8.548;2023-07-24T08:07:35;4.38;;;3.35;;
7571;SDS011;3827;49.928;8.548;2023-07-24T08:10:03;3.10;;;2.78;;
7571;SDS011;3827;49.928;8.548;2023-07-24T08:12:31;3.65;;;3.03;;
7571;SDS011;3827;49.928;8.548;2023-07-24T08:14:58;3.45;;;2.83;;
7571;SDS011;3827;49.928;8.548;2023-07-24T08:17:24;3.47;;;2.80;;
7571;SDS011;3827;49.928;8.548;2023-07-24T08:19:53;4.82;;;2.90;;
7571;SDS011;3827;49.928;8.548;2023-07-24T08:22:19;3.22;;;2.83;;
7571;SDS011;3827;49.928;8.548;2023-07-24T08:24:47;4.30;;;3.20;;
7571;SDS011;3827;49.928;8.548;2023-07-24T08:27:15;3.20;;;2.60;;
7571;SDS011;3827;49.928;8.548;2023-07-24T08:29:42;3.67;;;2.90;;
7571;SDS011;3827;49.928;8.548;2023-07-24T08:32:09;3.60;;;3.20;;
7571;SDS011;3827;49.928;8.548;2023-07-24T08:34:35;5.35;;;2.88;;
7571;SDS011;3827;49.928;8.548;2023-07-24T08:37:04;2.93;;;2.60;;
7571;SDS011;3827;49.928;8.548;2023-07-24T08:39:31;3.50;;;2.65;;
7571;SDS011;3827;49.928;8.548;2023-07-24T08:41:58;3.67;;;2.97;;
7571;SDS011;3827;49.928;8.548;2023-07-24T08:44:25;3.70;;;3.05;;
7571;SDS011;3827;49.928;8.548;2023-07-24T08:46:56;3.03;;;2.63;;
7571;SDS011;3827;49.928;8.548;2023-07-24T08:49:23;4.60;;;2.67;;
7571;SDS011;3827;49.928;8.548;2023-07-24T08:51:51;3.27;;;2.80;;
7571;SDS011;3827;49.928;8.548;2023-07-24T08:54:21;3.05;;;2.75;;
7571;SDS011;3827;49.928;8.548;2023-07-24T08:56:49;3.87;;;2.80;;
7571;SDS011;3827;49.928;8.548;2023-07-24T08:59:17;5.05;;;2.80;;
7571;SDS011;3827;49.928;8.548;2023-07-24T09:01:44;4.40;;;3.25;;
7571;SDS011;3827;49.928;8.548;2023-07-24T09:04:11;4.53;;;3.00;;
7571;SDS011;3827;49.928;8.548;2023-07-24T09:06:38;4.00;;;3.03;;
7571;SDS011;3827;49.928;8.548;2023-07-24T09:09:12;6.82;;;3.03;;
7571;SDS011;3827;49.928;8.548;2023-07-24T09:11:46;3.10;;;2.75;;
7571;SDS011;3827;49.928;8.548;2023-07-24T09:14:19;3.83;;;2.90;;
7571;SDS011;3827;49.928;8.548;2023-07-24T09:16:47;5.10;;;3.10;;
7571;SDS011;3827;49.928;8.548;2023-07-24T09:19:17;5.32;;;2.80;;
7571;SDS011;3827;49.928;8.548;2023-07-24T09:21:44;3.40;;;3.10;;
7571;SDS011;3827;49.928;8.548;2023-07-24T09:24:12;4.38;;;2.97;;
7571;SDS011;3827;49.928;8.548;2023-07-24T09:26:47;4.03;;;2.92;;
7571;SDS011;3827;49.928;8.548;2023-07-24T09:29:15;3.67;;;2.83;;
7571;SDS011;3827;49.928;8.548;2023-07-24T09:31:43;3.80;;;3.17;;
7571;SDS011;3827;49.928;8.548;2023-07-24T09:34:13;3.35;;;2.85;;
7571;SDS011;3827;49.928;8.548;2023-07-24T09:36:41;4.53;;;3.42;;
7571;SDS011;3827;49.928;8.548;2023-07-24T09:39:08;4.00;;;3.28;;
7571;SDS011;3827;49.928;8.548;2023-07-24T09:41:36;3.15;;;2.80;;
7571;SDS011;3827;49.928;8.548;2023-07-24T09:44:04;4.95;;;3.22;;
7571;SDS011;3827;49.928;8.548;2023-07-24T09:46:31;4.55;;;3.30;;
7571;SDS011;3827;49.928;8.548;2023-07-24T09:48:59;4.30;;;3.50;;
7571;SDS011;3827;49.928;8.548;2023-07-24T09:51:27;4.45;;;3.72;;
7571;SDS011;3827;49.928;8.548;2023-07-24T09:53:58;4.20;;;3.70;;
7571;SDS011;3827;49.928;8.548;2023-07-24T09:56:32;4.57;;;3.50;;
7571;SDS011;3827;49.928;8.548;2023-07-24T09:58:59;5.65;;;3.45;;
7571;SDS011;3827;49.928;8.548;2023-07-24T10:01:29;5.43;;;3.88;;
7571;SDS011;3827;49.928;8.548;2023-07-24T10:03:58;4.03;;;3.63;;
7571;SDS011;3827;49.928;8.548;2023-07-24T10:06:26;4.22;;;3.03;;
7571;SDS011;3827;49.928;8.548;2023-07-24T10:08:54;3.95;;;3.22;;
7571;SDS011;3827;49.928;8.548;2023-07-24T10:11:21;4.13;;;3.13;;
7571;SDS011;3827;49.928;8.548;2023-07-24T10:13:49;3.20;;;2.90;;
7571;SDS011;3827;49.928;8.548;2023-07-24T10:16:17;4.63;;;2.90;;
7571;SDS011;3827;49.928;8.548;2023-07-24T10:18:46;3.30;;;2.70;;
7571;SDS011;3827;49.928;8.548;2023-07-24T10:21:13;3.30;;;2.50;;
7571;SDS011;3827;49.928;8.548;2023-07-24T10:23:41;2.92;;;2.63;;
7571;SDS011;3827;49.928;8.548;2023-07-24T10:26:09;6.30;;;3.22;;
7571;SDS011;3827;49.928;8.548;2023-07-24T10:28:37;4.25;;;3.22;;
7571;SDS011;3827;49.928;8.548;2023-07-24T10:31:05;3.45;;;3.03;;
7571;SDS011;3827;49.928;8.548;2023-07-24T10:33:34;3.10;;;2.80;;
7571;SDS011;3827;49.928;8.548;2023-07-24T10:36:05;4.22;;;3.33;;
7571;SDS011;3827;49.928;8.548;2023-07-24T10:38:34;3.58;;;3.20;;
7571;SDS011;3827;49.928;8.548;2023-07-24T10:41:02;5.43;;;3.35;;
7571;SDS011;3827;49.928;8.548;2023-07-24T10:43:39;3.50;;;3.20;;
7571;SDS011;3827;49.928;8.548;2023-07-24T10:46:06;3.40;;;3.10;;
7571;SDS011;3827;49.928;8.548;2023-07-24T10:48:33;5.13;;;3.33;;
7571;SDS011;3827;49.928;8.548;2023-07-24T10:51:06;5.88;;;3.90;;
7571;SDS011;3827;49.928;8.548;2023-07-24T10:53:35;4.83;;;3.10;;
7571;SDS011;3827;49.928;8.548;2023-07-24T10:56:03;4.40;;;3.38;;
7571;SDS011;3827;49.928;8.548;2023-07-24T10:58:30;4.75;;;3.00;;
7571;SDS011;3827;49.928;8.548;2023-07-24T11:00:57;3.90;;;3.00;;
7571;SDS011;3827;49.928;8.548;2023-07-24T11:03:25;4.97;;;2.90;;
7571;SDS011;3827;49.928;8.548;2023-07-24T11:05:52;4.80;;;2.80;;
7571;SDS011;3827;49.928;8.548;2023-07-24T11:08:20;3.40;;;2.88;;
7571;SDS011;3827;49.928;8.548;2023-07-24T11:10:48;3.23;;;2.70;;
7571;SDS011;3827;49.928;8.548;2023-07-24T11:13:17;3.97;;;2.78;;
7571;SDS011;3827;49.928;8.548;2023-07-24T11:15:45;3.22;;;2.53;;
7571;SDS011;3827;49.928;8.548;2023-07-24T11:18:13;3.58;;;2.40;;
7571;SDS011;3827;49.928;8.548;2023-07-24T11:20:43;3.10;;;2.63;;
7571;SDS011;3827;49.928;8.548;2023-07-24T11:23:11;3.13;;;2.50;;
7571;SDS011;3827;49.928;8.548;2023-07-24T11:25:40;3.20;;;2.70;;
7571;SDS011;3827;49.928;8.548;2023-07-24T11:28:07;2.70;;;2.40;;
7571;SDS011;3827;49.928;8.548;2023-07-24T11:30:36;3.87;;;2.90;;
7571;SDS011;3827;49.928;8.548;2023-07-24T11:33:04;2.77;;;2.40;;
7571;SDS011;3827;49.928;8.548;2023-07-24T11:35:34;3.15;;;2.70;;
7571;SDS011;3827;49.928;8.548;2023-07-24T11:38:03;3.03;;;2.40;;
7571;SDS011;3827;49.928;8.548;2023-07-24T11:40:31;2.75;;;2.25;;
7571;SDS011;3827;49.928;8.548;2023-07-24T11:43:00;2.45;;;2.20;;
7571;SDS011;3827;49.928;8.548;2023-07-24T11:45:27;3.10;;;2.55;;
7571;SDS011;3827;49.928;8.548;2023-07-24T11:47:53;3.03;;;2.40;;
7571;SDS011;3827;49.928;8.548;2023-07-24T11:50:21;3.08;;;2.58;;
7571;SDS011;3827;49.928;8.548;2023-07-24T11:52:49;2.97;;;2.65;;
7571;SDS011;3827;49.928;8.548;2023-07-24T11:55:17;2.35;;;2.10;;
7571;SDS011;3827;49.928;8.548;2023-07-24T11:57:55;3.27;;;2.40;;
7571;SDS011;3827;49.928;8.548;2023-07-24T12:00:24;3.05;;;2.75;;
7571;SDS011;3827;49.928;8.548;2023-07-24T12:02:53;2.42;;;2.22;;
7571;SDS011;3827;49.928;8.548;2023-07-24T12:05:25;2.38;;;2.17;;
7571;SDS011;3827;49.928;8.548;2023-07-24T12:07:53;5.40;;;2.60;;
7571;SDS011;3827;49.928;8.548;2023-07-24T12:10:30;3.38;;;2.70;;
7571;SDS011;3827;49.928;8.548;2023-07-24T12:12:58;5.22;;;2.63;;
7571;SDS011;3827;49.928;8.548;2023-07-24T12:15:26;3.58;;;2.40;;
7571;SDS011;3827;49.928;8.548;2023-07-24T12:17:54;4.30;;;2.67;;
7571;SDS011;3827;49.928;8.548;2023-07-24T12:20:22;6.80;;;2.75;;
7571;SDS011;3827;49.928;8.548;2023-07-24T12:22:49;3.92;;;2.20;;
7571;SDS011;3827;49.928;8.548;2023-07-24T12:25:16;2.90;;;2.30;;
7571;SDS011;3827;49.928;8.548;2023-07-24T12:27:45;2.35;;;2.15;;
7571;SDS011;3827;49.928;8.548;2023-07-24T12:30:12;2.88;;;2.50;;
7571;SDS011;3827;49.928;8.548;2023-07-24T12:32:41;3.22;;;2.22;;
7571;SDS011;3827;49.928;8.548;2023-07-24T12:35:08;3.65;;;2.33;;
7571;SDS011;3827;49.928;8.548;2023-07-24T12:37:36;3.55;;;2.22;;
7571;SDS011;3827;49.928;8.548;2023-07-24T12:40:05;3.80;;;2.60;;
7571;SDS011;3827;49.928;8.548;2023-07-24T12:42:32;7.28;;;3.38;;
7571;SDS011;3827;49.928;8.548;2023-07-24T12:44:59;4.75;;;2.53;;
7571;SDS011;3827;49.928;8.548;2023-07-24T12:47:28;3.30;;;2.40;;
7571;SDS011;3827;49.928;8.548;2023-07-24T12:49:57;3.30;;;2.73;;
7571;SDS011;3827;49.928;8.548;2023-07-24T12:52:24;3.63;;;2.78;;
7571;SDS011;3827;49.928;8.548;2023-07-24T12:54:52;3.47;;;2.70;;
7571;SDS011;3827;49.928;8.548;2023-07-24T12:57:19;2.92;;;2.63;;
7571;SDS011;3827;49.928;8.548;2023-07-24T12:59:45;3.38;;;2.80;;
7571;SDS011;3827;49.928;8.548;2023-07-24T13:02:12;3.20;;;2.85;;
7571;SDS011;3827;49.928;8.548;2023-07-24T13:04:39;2.88;;;2.63;;
7571;SDS011;3827;49.928;8.548;2023-07-24T13:07:07;3.10;;;2.80;;
7571;SDS011;3827;49.928;8.548;2023-07-24T13:09:34;3.97;;;2.83;;
7571;SDS011;3827;49.928;8.548;2023-07-24T13:12:03;3.25;;;2.95;;
7571;SDS011;3827;49.928;8.548;2023-07-24T13:14:30;3.40;;;2.57;;
7571;SDS011;3827;49.928;8.548;2023-07-24T13:16:57;4.35;;;2.55;;
7571;SDS011;3827;49.928;8.548;2023-07-24T13:19:24;4.53;;;2.50;;
7571;SDS011;3827;49.928;8.548;2023-07-24T13:21:51;3.97;;;3.08;;
7571;SDS011;3827;49.928;8.548;2023-07-24T13:24:21;3.08;;;2.78;;
7571;SDS011;3827;49.928;8.548;2023-07-24T13:26:48;3.25;;;2.85;;
7571;SDS011;3827;49.928;8.548;2023-07-24T13:29:16;3.28;;;2.83;;
7571;SDS011;3827;49.928;8.548;2023-07-24T13:31:43;3.08;;;2.60;;
7571;SDS011;3827;49.928;8.548;2023-07-24T13:34:10;3.20;;;2.90;;
7571;SDS011;3827;49.928;8.548;2023-07-24T13:36:37;3.05;;;2.75;;
7571;SDS011;3827;49.928;8.548;2023-07-24T13:39:04;4.05;;;3.08;;
7571;SDS011;3827;49.928;8.548;2023-07-24T13:41:35;4.93;;;3.50;;
7571;SDS011;3827;49.928;8.548;2023-07-24T13:44:03;4.10;;;3.70;;
7571;SDS011;3827;49.928;8.548;2023-07-24T13:46:30;5.65;;;3.95;;
7571;SDS011;3827;49.928;8.548;2023-07-24T13:48:56;4.97;;;4.28;;
7571;SDS011;3827;49.928;8.548;2023-07-24T13:51:23;4.90;;;3.53;;
7571;SDS011;3827;49.928;8.548;2023-07-24T13:53:50;4.93;;;3.65;;
7571;SDS011;3827;49.928;8.548;2023-07-24T13:56:18;4.63;;;3.90;;
7571;SDS011;3827;49.928;8.548;2023-07-24T13:58:48;5.07;;;4.13;;
7571;SDS011;3827;49.928;8.548;2023-07-24T14:01:15;5.10;;;4.60;;
7571;SDS011;3827;49.928;8.548;2023-07-24T14:03:42;6.03;;;4.70;;
7571;SDS011;3827;49.928;8.548;2023-07-24T14:06:09;6.57;;;4.80;;
7571;SDS011;3827;49.928;8.548;2023-07-24T14:08:36;5.60;;;4.07;;
7571;SDS011;3827;49.928;8.548;2023-07-24T14:11:02;3.72;;;2.28;;
7571;SDS011;3827;49.928;8.548;2023-07-24T14:13:29;2.20;;;1.95;;
7571;SDS011;3827;49.928;8.548;2023-07-24T14:15:57;1.98;;;1.50;;
7571;SDS011;3827;49.928;8.548;2023-07-24T14:18:24;3.30;;;2.10;;
7571;SDS011;3827;49.928;8.548;2023-07-24T14:20:51;3.95;;;2.53;;
7571;SDS011;3827;49.928;8.548;2023-07-24T14:23:20;3.15;;;2.47;;
7571;SDS011;3827;49.928;8.548;2023-07-24T14:25:47;3.60;;;2.42;;
7571;SDS011;3827;49.928;8.548;2023-07-24T14:28:13;3.65;;;3.20;;
7571;SDS011;3827;49.928;8.548;2023-07-24T14:30:40;3.60;;;3.03;;
7571;SDS011;3827;49.928;8.548;2023-07-24T14:33:08;3.78;;;3.20;;
7571;SDS011;3827;49.928;8.548;2023-07-24T14:35:35;5.43;;;3.35;;
7571;SDS011;3827;49.928;8.548;2023-07-24T14:38:02;3.50;;;2.90;;
7571;SDS011;3827;49.928;8.548;2023-07-24T14:40:29;3.17;;;2.80;;
7571;SDS011;3827;49.928;8.548;2023-07-24T14:42:55;3.20;;;2.90;;
7571;SDS011;3827;49.928;8.548;2023-07-24T14:45:22;4.90;;;2.72;;
7571;SDS011;3827;49.928;8.548;2023-07-24T14:47:49;2.22;;;2.03;;
7571;SDS011;3827;49.928;8.548;2023-07-24T14:50:18;2.20;;;1.80;;
7571;SDS011;3827;49.928;8.548;2023-07-24T14:52:45;1.80;;;1.70;;
7571;SDS011;3827;49.928;8.548;2023-07-24T14:55:12;1.83;;;1.65;;
7571;SDS011;3827;49.928;8.548;2023-07-24T14:57:39;4.00;;;1.70;;
7571;SDS011;3827;49.928;8.548;2023-07-24T15:00:06;1.88;;;1.75;;
7571;SDS011;3827;49.928;8.548;2023-07-24T15:02:34;1.95;;;1.65;;
7571;SDS011;3827;49.928;8.548;2023-07-24T15:05:01;2.10;;;1.65;;
7571;SDS011;3827;49.928;8.548;2023-07-24T15:07:29;1.65;;;1.55;;
7571;SDS011;3827;49.928;8.548;2023-07-24T15:09:56;1.90;;;1.58;;
7571;SDS011;3827;49.928;8.548;2023-07-24T15:12:22;3.72;;;1.80;;
7571;SDS011;3827;49.928;8.548;2023-07-24T15:14:49;2.20;;;1.48;;
7571;SDS011;3827;49.928;8.548;2023-07-24T15:17:16;3.28;;;1.70;;